This is the latest recevied weather packets stored in our database for station/object HOTSPR-3. If no packets are shown the sender has not sent any weather packets the latest 1 day(s).
| Time | Temp. | Humidity | Pressure | Rain* | Wind** | Luminosity | Snow |
|---|---|---|---|---|---|---|---|
| 1836274201 | 22.78° C | 89% | 1015.3 hPa | 0 mm | 1.34 m/s, 337° | - | - |
| 1836274052 | 22.78° C | 89% | 1015.3 hPa | 0 mm | 1.34 m/s, 337° | - | - |
| 1778058919 | 14.44° C | 100% | 1006.6 hPa | 110.24 mm | 1.34 m/s, 30° | - | - |
| 1778058619 | 14.44° C | 100% | 1006.6 hPa | 110.24 mm | 1.79 m/s, 7° | - | - |
| 1778058018 | 15° C | 100% | 1007 hPa | 110.24 mm | 0.45 m/s, 325° | - | - |
| 1778057718 | 15° C | 100% | 1007 hPa | 110.24 mm | 0.45 m/s, 303° | - | - |
| 1778057418 | 15° C | 100% | 1006.7 hPa | 110.24 mm | 0.45 m/s, 312° | - | - |
| 1778056818 | 15° C | 100% | 1006.4 hPa | 110.24 mm | 1.34 m/s, 347° | - | - |
| 1778056518 | 15° C | 100% | 1006.2 hPa | 109.98 mm | 1.34 m/s, 342° | - | - |
| 1778056217 | 15° C | 100% | 1008.5 hPa | 109.47 mm | 0.89 m/s, 325° | - | - |
| 1778055917 | 15° C | 100% | 1007.2 hPa | 109.22 mm | 0.45 m/s, 315° | - | - |
| 1778055617 | 15.56° C | 100% | 1006.4 hPa | 108.46 mm | 0.89 m/s, 351° | - | - |
| 1778055317 | 15.56° C | 100% | 1006.3 hPa | 107.95 mm | 1.34 m/s, 342° | - | - |
| 1778055017 | 15.56° C | 100% | 1005.7 hPa | 107.95 mm | 1.34 m/s, 346° | - | - |
| 1778054716 | 16.11° C | 100% | 1006.8 hPa | 100.08 mm | 2.24 m/s, 348° | - | - |
| 1778054539 | 16.67° C | 100% | 1009.4 hPa | 61.98 mm | 3.58 m/s, 0° | - | - |
| 1778054416 | 16.67° C | 100% | 1009.4 hPa | 61.98 mm | 3.58 m/s, 0° | - | - |
| 1778054116 | 16.67° C | 100% | 1007.6 hPa | 39.12 mm | 2.68 m/s, 317° | - | - |
| 1778053516 | 17.22° C | 100% | 1004.2 hPa | 32 mm | 1.79 m/s, 348° | - | - |
| 1778053215 | 17.78° C | 100% | 1005 hPa | 31.75 mm | 2.68 m/s, 334° | - | - |
| 1778052915 | 18.33° C | 100% | 1004.8 hPa | 31.75 mm | 1.34 m/s, 355° | - | - |
| 1778052615 | 18.33° C | 100% | 1004.4 hPa | 31.5 mm | 2.68 m/s, 355° | - | - |
| 1778052314 | 18.89° C | 100% | 1004.8 hPa | 31.5 mm | 1.34 m/s, 27° | - | - |
| 1778052015 | 19.44° C | 100% | 1005.2 hPa | 31.5 mm | 1.34 m/s, 351° | - | - |
| 1778050214 | 20° C | 100% | 1004.6 hPa | 30.23 mm | 1.34 m/s, 337° | - | - |
* Rain since midnight (hover to see other rain measurements)
** Current wind speed in m/s (hover to see current wind gust speed)